sensor_id;sensor_type;location;lat;lon;timestamp;pressure;altitude;pressure_sealevel;temperature;humidity
72961;BME280;61141;46.204;19.774;2023-09-12T00:01:37;100250.44;;;17.07;77.79
72961;BME280;61141;46.204;19.774;2023-09-12T00:04:41;100249.72;;;16.99;77.91
72961;BME280;61141;46.204;19.774;2023-09-12T00:07:43;100246.63;;;16.93;77.65
72961;BME280;61141;46.204;19.774;2023-09-12T00:10:46;100254.13;;;16.96;78.10
72961;BME280;61141;46.204;19.774;2023-09-12T00:13:49;100249.84;;;16.92;78.27
72961;BME280;61141;46.204;19.774;2023-09-12T00:16:53;100250.66;;;16.89;78.64
72961;BME280;61141;46.204;19.774;2023-09-12T00:19:58;100247.97;;;16.82;79.03
72961;BME280;61141;46.204;19.774;2023-09-12T00:23:01;100251.94;;;16.81;79.30
72961;BME280;61141;46.204;19.774;2023-09-12T00:26:03;100246.81;;;16.79;79.67
72961;BME280;61141;46.204;19.774;2023-09-12T00:29:06;100247.63;;;16.76;79.83
72961;BME280;61141;46.204;19.774;2023-09-12T00:32:09;100248.03;;;16.78;79.56
72961;BME280;61141;46.204;19.774;2023-09-12T00:35:12;100248.44;;;16.77;79.54
72961;BME280;61141;46.204;19.774;2023-09-12T00:38:14;100242.09;;;16.76;79.62
72961;BME280;61141;46.204;19.774;2023-09-12T00:41:18;100242.97;;;16.73;79.70
72961;BME280;61141;46.204;19.774;2023-09-12T00:44:20;100246.91;;;16.72;80.18
72961;BME280;61141;46.204;19.774;2023-09-12T00:47:23;100230.84;;;16.60;80.19
72961;BME280;61141;46.204;19.774;2023-09-12T00:50:27;100246.16;;;16.68;80.29
72961;BME280;61141;46.204;19.774;2023-09-12T00:53:31;100249.75;;;16.65;80.62
72961;BME280;61141;46.204;19.774;2023-09-12T00:56:34;100247.75;;;16.66;80.75
72961;BME280;61141;46.204;19.774;2023-09-12T00:59:37;100244.66;;;16.60;81.11
72961;BME280;61141;46.204;19.774;2023-09-12T01:02:41;100239.12;;;16.60;81.20
72961;BME280;61141;46.204;19.774;2023-09-12T01:05:45;100242.72;;;16.57;81.22
72961;BME280;61141;46.204;19.774;2023-09-12T01:08:48;100243.94;;;16.56;81.46
72961;BME280;61141;46.204;19.774;2023-09-12T01:11:52;100235.31;;;16.47;81.83
72961;BME280;61141;46.204;19.774;2023-09-12T01:14:55;100248.31;;;16.50;82.00
72961;BME280;61141;46.204;19.774;2023-09-12T01:17:58;100210.94;;;16.35;81.89
72961;BME280;61141;46.204;19.774;2023-09-12T01:27:59;100231.03;;;16.42;82.11
72961;BME280;61141;46.204;19.774;2023-09-12T01:31:03;100249.91;;;16.48;82.17
72961;BME280;61141;46.204;19.774;2023-09-12T01:34:10;100241.66;;;16.44;82.20
72961;BME280;61141;46.204;19.774;2023-09-12T01:37:14;100239.78;;;16.37;82.54
72961;BME280;61141;46.204;19.774;2023-09-12T01:40:17;100239.78;;;16.34;82.69
72961;BME280;61141;46.204;19.774;2023-09-12T01:43:22;100246.50;;;16.33;83.06
72961;BME280;61141;46.204;19.774;2023-09-12T01:46:26;100244.91;;;16.35;82.83
72961;BME280;61141;46.204;19.774;2023-09-12T01:49:30;100253.63;;;16.34;82.76
72961;BME280;61141;46.204;19.774;2023-09-12T01:52:34;100246.50;;;16.33;82.94
72961;BME280;61141;46.204;19.774;2023-09-12T01:55:38;100248.09;;;16.34;83.02
72961;BME280;61141;46.204;19.774;2023-09-12T01:58:41;100255.25;;;16.28;83.06
72961;BME280;61141;46.204;19.774;2023-09-12T02:02:00;100258.38;;;16.30;83.14
72961;BME280;61141;46.204;19.774;2023-09-12T02:05:16;100252.91;;;16.26;83.41
72961;BME280;61141;46.204;19.774;2023-09-12T02:08:22;100258.47;;;16.23;83.83
72961;BME280;61141;46.204;19.774;2023-09-12T02:11:26;100252.97;;;16.19;84.03
72961;BME280;61141;46.204;19.774;2023-09-12T02:14:29;100261.69;;;16.18;84.40
72961;BME280;61141;46.204;19.774;2023-09-12T02:17:32;100260.91;;;16.14;84.55
72961;BME280;61141;46.204;19.774;2023-09-12T02:20:38;100258.16;;;16.10;84.74
72961;BME280;61141;46.204;19.774;2023-09-12T02:23:41;100257.78;;;16.12;84.58
72961;BME280;61141;46.204;19.774;2023-09-12T02:26:44;100262.09;;;16.13;84.47
72961;BME280;61141;46.204;19.774;2023-09-12T02:29:47;100257.81;;;16.08;84.31
72961;BME280;61141;46.204;19.774;2023-09-12T02:32:50;100251.19;;;15.99;84.49
72961;BME280;61141;46.204;19.774;2023-09-12T02:35:53;100249.94;;;16.07;84.44
72961;BME280;61141;46.204;19.774;2023-09-12T02:38:56;100248.78;;;16.01;84.59
72961;BME280;61141;46.204;19.774;2023-09-12T02:41:59;100250.75;;;16.04;84.64
72961;BME280;61141;46.204;19.774;2023-09-12T02:45:02;100248.44;;;15.99;84.76
72961;BME280;61141;46.204;19.774;2023-09-12T02:48:05;100223.25;;;15.86;84.78
72961;BME280;61141;46.204;19.774;2023-09-12T02:51:08;100251.22;;;15.95;85.10
72961;BME280;61141;46.204;19.774;2023-09-12T02:54:11;100243.63;;;16.03;85.03
72961;BME280;61141;46.204;19.774;2023-09-12T02:57:14;100244.00;;;16.05;84.66
72961;BME280;61141;46.204;19.774;2023-09-12T03:00:17;100225.50;;;16.02;84.42
72961;BME280;61141;46.204;19.774;2023-09-12T03:03:20;100237.37;;;15.99;84.52
72961;BME280;61141;46.204;19.774;2023-09-12T03:06:23;100237.78;;;15.94;84.84
72961;BME280;61141;46.204;19.774;2023-09-12T03:09:26;100241.00;;;15.88;84.98
72961;BME280;61141;46.204;19.774;2023-09-12T03:12:30;100231.19;;;15.84;85.18
72961;BME280;61141;46.204;19.774;2023-09-12T03:15:36;100242.62;;;15.82;85.86
72961;BME280;61141;46.204;19.774;2023-09-12T03:18:40;100245.44;;;15.79;86.07
72961;BME280;61141;46.204;19.774;2023-09-12T03:21:44;100228.19;;;15.61;86.49
72961;BME280;61141;46.204;19.774;2023-09-12T03:24:47;100250.97;;;15.75;86.88
72961;BME280;61141;46.204;19.774;2023-09-12T03:27:50;100244.66;;;15.75;86.79
72961;BME280;61141;46.204;19.774;2023-09-12T03:31:12;100247.41;;;15.78;86.81
72961;BME280;61141;46.204;19.774;2023-09-12T03:34:16;100248.59;;;15.77;87.54
72961;BME280;61141;46.204;19.774;2023-09-12T03:37:19;100252.94;;;15.78;87.68
72961;BME280;61141;46.204;19.774;2023-09-12T03:40:22;100248.16;;;15.82;87.81
72961;BME280;61141;46.204;19.774;2023-09-12T03:43:25;100254.88;;;15.85;87.97
72961;BME280;61141;46.204;19.774;2023-09-12T03:46:28;100254.44;;;15.86;87.42
72961;BME280;61141;46.204;19.774;2023-09-12T03:49:31;100253.75;;;15.75;87.98
72961;BME280;61141;46.204;19.774;2023-09-12T03:52:34;100258.53;;;15.68;88.18
72961;BME280;61141;46.204;19.774;2023-09-12T03:55:37;100257.37;;;15.65;88.46
72961;BME280;61141;46.204;19.774;2023-09-12T03:58:40;100260.13;;;15.65;87.88
72961;BME280;61141;46.204;19.774;2023-09-12T04:01:44;100258.47;;;15.75;87.78
72961;BME280;61141;46.204;19.774;2023-09-12T04:04:47;100240.81;;;15.65;87.57
72961;BME280;61141;46.204;19.774;2023-09-12T04:07:50;100259.69;;;15.70;87.34
72961;BME280;61141;46.204;19.774;2023-09-12T04:10:53;100256.56;;;15.68;87.73
72961;BME280;61141;46.204;19.774;2023-09-12T04:13:55;100259.72;;;15.63;88.26
72961;BME280;61141;46.204;19.774;2023-09-12T04:16:58;100262.12;;;15.61;88.37
72961;BME280;61141;46.204;19.774;2023-09-12T04:20:02;100253.50;;;15.52;89.25
72961;BME280;61141;46.204;19.774;2023-09-12T04:23:07;100271.59;;;15.60;89.42
72961;BME280;61141;46.204;19.774;2023-09-12T04:26:10;100260.66;;;15.46;89.79
72961;BME280;61141;46.204;19.774;2023-09-12T04:29:13;100273.25;;;15.51;90.11
72961;BME280;61141;46.204;19.774;2023-09-12T04:32:16;100269.31;;;15.48;90.54
72961;BME280;61141;46.204;19.774;2023-09-12T04:35:26;100274.34;;;15.60;90.11
72961;BME280;61141;46.204;19.774;2023-09-12T04:38:30;100274.78;;;15.55;90.28
72961;BME280;61141;46.204;19.774;2023-09-12T04:41:33;100268.09;;;15.53;90.68
72961;BME280;61141;46.204;19.774;2023-09-12T04:44:36;100272.41;;;15.57;90.65
72961;BME280;61141;46.204;19.774;2023-09-12T04:47:39;100277.09;;;15.60;91.10
72961;BME280;61141;46.204;19.774;2023-09-12T04:50:42;100268.88;;;15.53;91.30
72961;BME280;61141;46.204;19.774;2023-09-12T04:53:46;100293.63;;;15.71;90.72
72961;BME280;61141;46.204;19.774;2023-09-12T04:56:54;100293.56;;;15.81;90.28
72961;BME280;61141;46.204;19.774;2023-09-12T04:59:57;100294.63;;;15.95;90.24
72961;BME280;61141;46.204;19.774;2023-09-12T05:03:03;100286.56;;;16.18;89.57
72961;BME280;61141;46.204;19.774;2023-09-12T05:06:06;100279.00;;;16.22;88.61
72961;BME280;61141;46.204;19.774;2023-09-12T05:09:09;100293.47;;;16.40;88.29
72961;BME280;61141;46.204;19.774;2023-09-12T05:12:14;100287.87;;;16.43;88.63
72961;BME280;61141;46.204;19.774;2023-09-12T05:15:17;100290.97;;;16.49;88.38
72961;BME280;61141;46.204;19.774;2023-09-12T05:18:20;100287.81;;;16.54;88.08
72961;BME280;61141;46.204;19.774;2023-09-12T05:21:24;100284.13;;;16.68;87.71
72961;BME280;61141;46.204;19.774;2023-09-12T05:24:27;100290.31;;;16.79;87.31
72961;BME280;61141;46.204;19.774;2023-09-12T05:27:29;100291.75;;;16.90;87.87
72961;BME280;61141;46.204;19.774;2023-09-12T05:30:33;100291.69;;;16.97;87.17
72961;BME280;61141;46.204;19.774;2023-09-12T05:33:36;100301.03;;;17.07;86.70
72961;BME280;61141;46.204;19.774;2023-09-12T05:36:39;100298.88;;;17.22;86.06
72961;BME280;61141;46.204;19.774;2023-09-12T05:39:42;100302.94;;;17.44;85.16
72961;BME280;61141;46.204;19.774;2023-09-12T05:42:45;100298.03;;;17.58;83.83
72961;BME280;61141;46.204;19.774;2023-09-12T05:45:48;100298.37;;;17.87;83.49
72961;BME280;61141;46.204;19.774;2023-09-12T05:48:51;100297.44;;;17.97;83.37
72961;BME280;61141;46.204;19.774;2023-09-12T05:51:54;100305.97;;;18.06;83.01
72961;BME280;61141;46.204;19.774;2023-09-12T05:54:57;100303.34;;;18.23;82.15
72961;BME280;61141;46.204;19.774;2023-09-12T05:58:00;100305.84;;;18.37;81.82
72961;BME280;61141;46.204;19.774;2023-09-12T06:01:03;100312.41;;;18.50;81.43
72961;BME280;61141;46.204;19.774;2023-09-12T06:04:06;100311.78;;;18.62;81.12
72961;BME280;61141;46.204;19.774;2023-09-12T06:07:09;100317.00;;;18.80;80.22
72961;BME280;61141;46.204;19.774;2023-09-12T06:10:13;100315.72;;;18.84;80.34
72961;BME280;61141;46.204;19.774;2023-09-12T06:13:16;100316.88;;;19.06;79.40
72961;BME280;61141;46.204;19.774;2023-09-12T06:16:19;100326.84;;;19.23;78.80
72961;BME280;61141;46.204;19.774;2023-09-12T06:19:22;100326.13;;;19.39;78.42
72961;BME280;61141;46.204;19.774;2023-09-12T06:22:25;100332.91;;;19.58;77.66
72961;BME280;61141;46.204;19.774;2023-09-12T06:25:27;100323.59;;;19.64;77.34
72961;BME280;61141;46.204;19.774;2023-09-12T06:28:32;100328.31;;;19.83;76.68
72961;BME280;61141;46.204;19.774;2023-09-12T06:31:35;100325.66;;;19.96;76.10
72961;BME280;61141;46.204;19.774;2023-09-12T06:34:38;100324.00;;;20.15;74.83
72961;BME280;61141;46.204;19.774;2023-09-12T06:37:41;100324.47;;;20.29;74.69
72961;BME280;61141;46.204;19.774;2023-09-12T06:40:44;100338.13;;;20.40;74.48
72961;BME280;61141;46.204;19.774;2023-09-12T06:43:47;100332.06;;;20.58;73.15
72961;BME280;61141;46.204;19.774;2023-09-12T06:46:50;100338.75;;;20.76;72.85
72961;BME280;61141;46.204;19.774;2023-09-12T06:49:52;100340.47;;;20.86;72.33
72961;BME280;61141;46.204;19.774;2023-09-12T06:52:58;100340.88;;;21.01;71.30
72961;BME280;61141;46.204;19.774;2023-09-12T06:56:00;100339.13;;;21.07;71.20
72961;BME280;61141;46.204;19.774;2023-09-12T06:59:04;100338.72;;;21.21;70.83
72961;BME280;61141;46.204;19.774;2023-09-12T07:02:07;100335.87;;;21.37;69.74
72961;BME280;61141;46.204;19.774;2023-09-12T07:05:10;100337.09;;;21.49;69.06
72961;BME280;61141;46.204;19.774;2023-09-12T07:08:13;100340.91;;;21.55;69.09
72961;BME280;61141;46.204;19.774;2023-09-12T07:11:16;100351.06;;;21.74;68.49
72961;BME280;61141;46.204;19.774;2023-09-12T07:14:18;100346.19;;;21.91;67.26
72961;BME280;61141;46.204;19.774;2023-09-12T07:17:21;100356.91;;;22.05;66.68
72961;BME280;61141;46.204;19.774;2023-09-12T07:20:24;100349.31;;;22.18;66.39
72961;BME280;61141;46.204;19.774;2023-09-12T07:23:28;100351.31;;;22.30;65.73
72961;BME280;61141;46.204;19.774;2023-09-12T07:26:30;100347.38;;;22.40;65.95
72961;BME280;61141;46.204;19.774;2023-09-12T07:29:33;100350.47;;;22.55;64.70
72961;BME280;61141;46.204;19.774;2023-09-12T07:32:36;100351.44;;;22.73;64.27
72961;BME280;61141;46.204;19.774;2023-09-12T07:35:39;100352.13;;;22.77;64.29
72961;BME280;61141;46.204;19.774;2023-09-12T07:38:43;100346.47;;;22.90;63.13
72961;BME280;61141;46.204;19.774;2023-09-12T07:41:48;100354.03;;;23.02;63.07
72961;BME280;61141;46.204;19.774;2023-09-12T07:44:51;100346.38;;;23.15;62.73
72961;BME280;61141;46.204;19.774;2023-09-12T07:47:54;100343.62;;;23.24;62.26
72961;BME280;61141;46.204;19.774;2023-09-12T07:50:56;100339.28;;;23.45;61.38
72961;BME280;61141;46.204;19.774;2023-09-12T07:53:59;100334.03;;;23.47;61.78
72961;BME280;61141;46.204;19.774;2023-09-12T07:57:02;100329.91;;;23.61;61.60
72961;BME280;61141;46.204;19.774;2023-09-12T08:00:06;100338.97;;;23.74;61.07
72961;BME280;61141;46.204;19.774;2023-09-12T08:03:13;100333.31;;;23.95;60.30
72961;BME280;61141;46.204;19.774;2023-09-12T08:06:16;100339.00;;;24.14;59.41
72961;BME280;61141;46.204;19.774;2023-09-12T08:09:19;100334.84;;;24.27;58.82
72961;BME280;61141;46.204;19.774;2023-09-12T08:12:24;100332.72;;;24.49;57.81
72961;BME280;61141;46.204;19.774;2023-09-12T08:15:27;100316.38;;;24.57;56.87
72961;BME280;61141;46.204;19.774;2023-09-12T08:18:30;100318.72;;;24.77;56.68
72961;BME280;61141;46.204;19.774;2023-09-12T08:21:33;100323.56;;;25.03;55.05
72961;BME280;61141;46.204;19.774;2023-09-12T08:24:37;100326.38;;;25.12;53.48
72961;BME280;61141;46.204;19.774;2023-09-12T08:27:40;100322.25;;;25.41;51.34
72961;BME280;61141;46.204;19.774;2023-09-12T08:30:45;100322.25;;;25.50;51.17
72961;BME280;61141;46.204;19.774;2023-09-12T08:33:50;100329.13;;;25.49;51.38
72961;BME280;61141;46.204;19.774;2023-09-12T08:36:53;100325.16;;;25.74;49.32
72961;BME280;61141;46.204;19.774;2023-09-12T08:39:56;100333.22;;;25.81;49.86
72961;BME280;61141;46.204;19.774;2023-09-12T08:43:02;100325.84;;;25.92;48.74
72961;BME280;61141;46.204;19.774;2023-09-12T08:46:06;100327.34;;;26.02;48.80
72961;BME280;61141;46.204;19.774;2023-09-12T08:49:09;100322.63;;;26.08;46.99
72961;BME280;61141;46.204;19.774;2023-09-12T08:52:13;100319.00;;;26.26;47.29
72961;BME280;61141;46.204;19.774;2023-09-12T08:55:17;100329.16;;;26.47;47.29
72961;BME280;61141;46.204;19.774;2023-09-12T08:58:20;100324.84;;;26.61;45.99
72961;BME280;61141;46.204;19.774;2023-09-12T09:01:24;100322.53;;;26.74;45.86
72961;BME280;61141;46.204;19.774;2023-09-12T09:04:31;100326.19;;;26.89;44.00
72961;BME280;61141;46.204;19.774;2023-09-12T09:07:39;100316.41;;;26.99;44.68
72961;BME280;61141;46.204;19.774;2023-09-12T09:10:55;100324.38;;;27.15;44.08
72961;BME280;61141;46.204;19.774;2023-09-12T09:13:58;100324.03;;;27.22;43.17
72961;BME280;61141;46.204;19.774;2023-09-12T09:17:00;100311.91;;;27.46;41.30
72961;BME280;61141;46.204;19.774;2023-09-12T09:20:04;100313.44;;;27.76;41.29
72961;BME280;61141;46.204;19.774;2023-09-12T09:23:11;100315.75;;;27.77;40.79
72961;BME280;61141;46.204;19.774;2023-09-12T09:26:14;100314.72;;;27.75;40.96
72961;BME280;61141;46.204;19.774;2023-09-12T09:29:19;100314.19;;;27.76;41.52
72961;BME280;61141;46.204;19.774;2023-09-12T09:32:22;100309.53;;;27.88;40.56
72961;BME280;61141;46.204;19.774;2023-09-12T09:35:25;100308.56;;;27.91;40.12
72961;BME280;61141;46.204;19.774;2023-09-12T09:38:28;100312.78;;;28.16;38.75
72961;BME280;61141;46.204;19.774;2023-09-12T09:41:31;100298.88;;;28.12;38.18
72961;BME280;61141;46.204;19.774;2023-09-12T09:44:35;100304.75;;;28.29;37.99
72961;BME280;61141;46.204;19.774;2023-09-12T09:47:38;100305.88;;;28.37;36.97
72961;BME280;61141;46.204;19.774;2023-09-12T09:50:41;100302.59;;;28.38;36.05
72961;BME280;61141;46.204;19.774;2023-09-12T09:53:44;100300.63;;;28.44;35.64
72961;BME280;61141;46.204;19.774;2023-09-12T09:56:53;100303.16;;;28.63;35.27
72961;BME280;61141;46.204;19.774;2023-09-12T09:59:56;100307.56;;;28.64;35.14
72961;BME280;61141;46.204;19.774;2023-09-12T10:02:59;100307.87;;;28.71;34.32
72961;BME280;61141;46.204;19.774;2023-09-12T10:06:04;100304.69;;;28.84;34.03
72961;BME280;61141;46.204;19.774;2023-09-12T10:09:10;100301.75;;;28.73;32.68
72961;BME280;61141;46.204;19.774;2023-09-12T10:12:14;100293.06;;;28.76;32.71
72961;BME280;61141;46.204;19.774;2023-09-12T10:15:20;100298.84;;;29.13;33.48
72961;BME280;61141;46.204;19.774;2023-09-12T10:18:26;100294.69;;;29.08;32.65
72961;BME280;61141;46.204;19.774;2023-09-12T10:21:33;100293.06;;;29.22;31.19
72961;BME280;61141;46.204;19.774;2023-09-12T10:24:39;100290.00;;;29.26;29.31
72961;BME280;61141;46.204;19.774;2023-09-12T10:27:41;100286.78;;;29.12;31.07
72961;BME280;61141;46.204;19.774;2023-09-12T10:30:44;100278.50;;;29.29;30.20
72961;BME280;61141;46.204;19.774;2023-09-12T10:33:49;100278.81;;;29.11;31.13
72961;BME280;61141;46.204;19.774;2023-09-12T10:36:55;100278.13;;;29.47;30.89
72961;BME280;61141;46.204;19.774;2023-09-12T10:40:01;100272.34;;;29.62;29.87
72961;BME280;61141;46.204;19.774;2023-09-12T10:43:09;100272.88;;;29.60;28.38
72961;BME280;61141;46.204;19.774;2023-09-12T10:46:16;100269.34;;;29.71;29.21
72961;BME280;61141;46.204;19.774;2023-09-12T10:49:20;100286.06;;;29.43;30.33
72961;BME280;61141;46.204;19.774;2023-09-12T10:52:27;100282.59;;;29.59;28.68
72961;BME280;61141;46.204;19.774;2023-09-12T10:55:30;100285.63;;;29.82;28.84
72961;BME280;61141;46.204;19.774;2023-09-12T10:59:27;100280.84;;;29.99;28.18
72961;BME280;61141;46.204;19.774;2023-09-12T11:02:28;100267.00;;;30.01;28.53
72961;BME280;61141;46.204;19.774;2023-09-12T11:05:36;100275.28;;;30.15;26.92
72961;BME280;61141;46.204;19.774;2023-09-12T11:08:40;100280.87;;;30.04;27.38
72961;BME280;61141;46.204;19.774;2023-09-12T11:11:45;100279.28;;;29.98;28.25
72961;BME280;61141;46.204;19.774;2023-09-12T11:15:08;100268.88;;;29.78;28.46
72961;BME280;61141;46.204;19.774;2023-09-12T11:18:12;100268.91;;;30.20;28.57
72961;BME280;61141;46.204;19.774;2023-09-12T11:21:15;100272.97;;;30.14;28.89
72961;BME280;61141;46.204;19.774;2023-09-12T11:24:19;100250.84;;;30.07;28.92
72961;BME280;61141;46.204;19.774;2023-09-12T11:27:24;100253.47;;;30.21;29.18
72961;BME280;61141;46.204;19.774;2023-09-12T11:30:27;100251.03;;;30.40;28.93
72961;BME280;61141;46.204;19.774;2023-09-12T11:33:40;100252.34;;;30.56;28.68
72961;BME280;61141;46.204;19.774;2023-09-12T11:36:45;100240.00;;;30.53;28.34
72961;BME280;61141;46.204;19.774;2023-09-12T11:39:49;100248.75;;;30.55;28.46
72961;BME280;61141;46.204;19.774;2023-09-12T11:42:53;100251.09;;;30.62;28.83
72961;BME280;61141;46.204;19.774;2023-09-12T11:45:56;100241.59;;;30.71;29.09
72961;BME280;61141;46.204;19.774;2023-09-12T11:49:01;100235.19;;;30.81;29.00
72961;BME280;61141;46.204;19.774;2023-09-12T11:52:15;100225.38;;;30.66;28.63
72961;BME280;61141;46.204;19.774;2023-09-12T11:55:23;100225.34;;;30.60;29.19
72961;BME280;61141;46.204;19.774;2023-09-12T11:58:26;100222.84;;;30.84;28.94
72961;BME280;61141;46.204;19.774;2023-09-12T12:01:30;100223.09;;;30.75;28.45
72961;BME280;61141;46.204;19.774;2023-09-12T12:04:33;100214.06;;;30.71;28.87
72961;BME280;61141;46.204;19.774;2023-09-12T12:07:37;100215.84;;;30.58;28.23
72961;BME280;61141;46.204;19.774;2023-09-12T12:10:41;100198.91;;;30.85;28.31
72961;BME280;61141;46.204;19.774;2023-09-12T12:13:44;100195.84;;;30.89;28.52
72961;BME280;61141;46.204;19.774;2023-09-12T12:16:47;100204.84;;;30.82;28.62
72961;BME280;61141;46.204;19.774;2023-09-12T12:19:50;100204.06;;;30.76;28.03
72961;BME280;61141;46.204;19.774;2023-09-12T12:22:53;100196.34;;;30.76;27.96
72961;BME280;61141;46.204;19.774;2023-09-12T12:25:56;100203.78;;;30.79;28.10
72961;BME280;61141;46.204;19.774;2023-09-12T12:29:00;100191.19;;;30.75;28.30
72961;BME280;61141;46.204;19.774;2023-09-12T12:32:04;100186.37;;;31.03;27.54
72961;BME280;61141;46.204;19.774;2023-09-12T12:35:09;100183.53;;;31.03;27.30
72961;BME280;61141;46.204;19.774;2023-09-12T12:38:12;100189.44;;;31.11;27.91
72961;BME280;61141;46.204;19.774;2023-09-12T12:41:17;100185.34;;;31.06;26.39
72961;BME280;61141;46.204;19.774;2023-09-12T12:44:33;100172.97;;;31.15;25.88
72961;BME280;61141;46.204;19.774;2023-09-12T12:47:38;100164.75;;;30.95;25.32
72961;BME280;61141;46.204;19.774;2023-09-12T12:50:40;100169.09;;;30.90;26.16
72961;BME280;61141;46.204;19.774;2023-09-12T12:53:47;100170.66;;;31.13;26.08
72961;BME280;61141;46.204;19.774;2023-09-12T12:56:55;100168.84;;;31.16;26.35
72961;BME280;61141;46.204;19.774;2023-09-12T12:59:59;100154.44;;;31.14;26.59
72961;BME280;61141;46.204;19.774;2023-09-12T13:03:03;100152.87;;;31.13;26.65
72961;BME280;61141;46.204;19.774;2023-09-12T13:06:06;100146.19;;;31.16;26.69
72961;BME280;61141;46.204;19.774;2023-09-12T13:09:11;100147.72;;;31.33;26.16
72961;BME280;61141;46.204;19.774;2023-09-12T13:12:14;100147.97;;;31.30;26.26
72961;BME280;61141;46.204;19.774;2023-09-12T13:15:18;100145.66;;;31.45;25.92
72961;BME280;61141;46.204;19.774;2023-09-12T13:18:21;100143.88;;;31.48;25.43
72961;BME280;61141;46.204;19.774;2023-09-12T13:21:24;100150.00;;;31.57;25.17
72961;BME280;61141;46.204;19.774;2023-09-12T13:24:27;100141.78;;;31.65;25.44
72961;BME280;61141;46.204;19.774;2023-09-12T13:27:30;100136.59;;;31.63;24.40
72961;BME280;61141;46.204;19.774;2023-09-12T13:30:33;100138.44;;;31.55;24.92
72961;BME280;61141;46.204;19.774;2023-09-12T13:33:36;100140.47;;;31.60;25.00
72961;BME280;61141;46.204;19.774;2023-09-12T13:36:39;100141.00;;;31.64;24.56
72961;BME280;61141;46.204;19.774;2023-09-12T13:39:42;100133.25;;;31.70;25.06
72961;BME280;61141;46.204;19.774;2023-09-12T13:42:50;100130.16;;;31.68;24.88
72961;BME280;61141;46.204;19.774;2023-09-12T13:45:53;100136.59;;;31.63;24.85
72961;BME280;61141;46.204;19.774;2023-09-12T13:48:56;100128.13;;;31.52;24.20
72961;BME280;61141;46.204;19.774;2023-09-12T13:52:03;100136.84;;;31.65;24.68
72961;BME280;61141;46.204;19.774;2023-09-12T13:55:06;100126.03;;;31.69;24.33
72961;BME280;61141;46.204;19.774;2023-09-12T13:58:09;100110.06;;;31.66;24.68
72961;BME280;61141;46.204;19.774;2023-09-12T14:01:12;100121.59;;;31.79;24.70
72961;BME280;61141;46.204;19.774;2023-09-12T14:04:32;100114.66;;;31.80;24.69
72961;BME280;61141;46.204;19.774;2023-09-12T14:07:36;100113.91;;;31.74;24.95
72961;BME280;61141;46.204;19.774;2023-09-12T14:10:41;100113.16;;;31.68;25.11
72961;BME280;61141;46.204;19.774;2023-09-12T14:13:45;100106.19;;;31.69;25.13
72961;BME280;61141;46.204;19.774;2023-09-12T14:16:50;100104.66;;;31.68;25.00
72961;BME280;61141;46.204;19.774;2023-09-12T14:19:53;100106.97;;;31.70;25.04
72961;BME280;61141;46.204;19.774;2023-09-12T14:22:56;100103.16;;;31.62;25.11
72961;BME280;61141;46.204;19.774;2023-09-12T14:26:00;100104.19;;;31.59;25.38
72961;BME280;61141;46.204;19.774;2023-09-12T14:29:04;100105.22;;;31.56;25.39
72961;BME280;61141;46.204;19.774;2023-09-12T14:32:07;100103.19;;;31.51;25.42
72961;BME280;61141;46.204;19.774;2023-09-12T14:35:10;100106.53;;;31.49;25.07
72961;BME280;61141;46.204;19.774;2023-09-12T14:38:13;100107.53;;;31.40;24.64
72961;BME280;61141;46.204;19.774;2023-09-12T14:41:16;100106.56;;;31.16;24.71
72961;BME280;61141;46.204;19.774;2023-09-12T14:44:19;100092.69;;;31.07;24.81
72961;BME280;61141;46.204;19.774;2023-09-12T14:47:22;100102.72;;;31.02;24.94
72961;BME280;61141;46.204;19.774;2023-09-12T14:50:26;100104.53;;;31.00;24.61
72961;BME280;61141;46.204;19.774;2023-09-12T14:53:44;100111.22;;;30.97;24.41
72961;BME280;61141;46.204;19.774;2023-09-12T14:56:49;100105.53;;;30.85;24.90
72961;BME280;61141;46.204;19.774;2023-09-12T14:59:53;100115.06;;;30.88;24.80
72961;BME280;61141;46.204;19.774;2023-09-12T15:02:58;100106.31;;;30.80;24.72
72961;BME280;61141;46.204;19.774;2023-09-12T15:06:01;100109.41;;;30.77;24.70
72961;BME280;61141;46.204;19.774;2023-09-12T15:09:04;100111.72;;;30.62;25.07
72961;BME280;61141;46.204;19.774;2023-09-12T15:12:07;100107.31;;;30.50;25.53
72961;BME280;61141;46.204;19.774;2023-09-12T15:15:11;100103.94;;;30.35;25.91
72961;BME280;61141;46.204;19.774;2023-09-12T15:18:14;100100.59;;;30.31;25.85
72961;BME280;61141;46.204;19.774;2023-09-12T15:21:17;100096.72;;;30.28;25.88
72961;BME280;61141;46.204;19.774;2023-09-12T15:24:20;100092.03;;;30.03;26.56
72961;BME280;61141;46.204;19.774;2023-09-12T15:27:23;100092.03;;;29.97;26.64
72961;BME280;61141;46.204;19.774;2023-09-12T15:30:26;100102.28;;;29.95;26.70
72961;BME280;61141;46.204;19.774;2023-09-12T15:33:29;100084.00;;;29.79;27.07
72961;BME280;61141;46.204;19.774;2023-09-12T15:36:39;100101.75;;;29.80;27.07
72961;BME280;61141;46.204;19.774;2023-09-12T15:39:42;100098.31;;;29.70;27.14
72961;BME280;61141;46.204;19.774;2023-09-12T15:42:45;100096.50;;;29.61;27.37
72961;BME280;61141;46.204;19.774;2023-09-12T15:45:49;100092.56;;;29.48;27.49
72961;BME280;61141;46.204;19.774;2023-09-12T15:48:53;100089.41;;;29.29;28.29
72961;BME280;61141;46.204;19.774;2023-09-12T15:51:57;100092.13;;;29.18;28.60
72961;BME280;61141;46.204;19.774;2023-09-12T15:55:01;100092.28;;;29.03;29.27
72961;BME280;61141;46.204;19.774;2023-09-12T15:58:03;100095.69;;;28.82;30.02